Time;durP1;ratioP1;P1;durP2;ratioP2;P2;SDS_P1;SDS_P2;PMS_P1;PMS_P2;Temp;Humidity;BMP_temperature;BMP_pressure;BME280_temperature;BME280_humidity;BME280_pressure;Samples;Min_cycle;Max_cycle;Signal;HPM_P1;HPM_P2
2022/05/13 00:02:09;;;;;;;7.20;3.05;;;10.50;99.90;;;;;;5074493;28;20072;-64
2022/05/13 00:04:35;;;;;;;5.97;3.30;;;10.10;99.90;;;;;;5075758;28;20044;-64
2022/05/13 00:07:02;;;;;;;11.07;3.83;;;10.60;99.90;;;;;;5075603;28;20044;-64
2022/05/13 00:12:12;;;;;;;11.60;4.40;;;10.50;99.90;;;;;;5075387;28;20074;-64
2022/05/13 00:14:38;;;;;;;7.15;3.40;;;10.50;99.90;;;;;;5073592;28;20048;-64
2022/05/13 00:17:04;;;;;;;11.32;4.10;;;10.40;99.90;;;;;;5075557;28;20040;-64
2022/05/13 00:19:31;;;;;;;9.95;3.80;;;11.40;99.90;;;;;;5057633;28;20326;-64
2022/05/13 00:21:57;;;;;;;9.25;3.80;;;10.10;99.90;;;;;;5075441;28;20048;-64
2022/05/13 00:24:23;;;;;;;9.68;3.90;;;10.60;99.90;;;;;;5074928;28;20070;-64
2022/05/13 00:26:49;;;;;;;9.10;3.65;;;10.60;99.90;;;;;;5075446;28;20094;-64
2022/05/13 00:29:15;;;;;;;7.20;3.55;;;11.10;99.90;;;;;;5075424;28;20111;-64
2022/05/13 00:31:42;;;;;;;9.07;4.05;;;10.40;99.90;;;;;;5074075;28;20141;-64
2022/05/13 00:34:08;;;;;;;7.75;4.20;;;;;;;;;;5075178;28;20036;-64
2022/05/13 00:36:35;;;;;;;11.32;4.00;;;10.40;99.90;;;;;;5075050;28;20044;-59
2022/05/13 00:39:05;;;;;;;9.88;4.10;;;10.80;99.90;;;;;;5074778;28;20496;-58
2022/05/13 00:41:31;;;;;;;10.18;4.38;;;;;;;;;;5075211;28;20487;-59
2022/05/13 00:43:57;;;;;;;8.80;3.80;;;10.70;99.90;;;;;;5075137;28;20068;-59
2022/05/13 00:46:25;;;;;;;8.65;3.95;;;10.70;99.90;;;;;;5074853;28;20470;-59
2022/05/13 00:48:51;;;;;;;8.77;3.95;;;10.70;99.90;;;;;;5073496;28;20055;-58
2022/05/13 00:51:26;;;;;;;11.63;3.90;;;10.50;99.90;;;;;;5074802;28;20037;-58
2022/05/13 00:53:52;;;;;;;11.15;4.28;;;10.40;99.90;;;;;;5074588;28;20381;-59
2022/05/13 00:56:21;;;;;;;10.50;4.38;;;10.50;99.90;;;;;;5073606;28;20442;-59
2022/05/13 00:58:53;;;;;;;12.05;4.35;;;10.50;99.90;;;;;;5074828;28;20051;-58
2022/05/13 01:01:25;;;;;;;11.40;4.68;;;10.40;99.90;;;;;;5149269;22;20046;-57
2022/05/13 01:03:51;;;;;;;6.75;4.28;;;10.00;99.90;;;;;;5033167;28;20050;-58
2022/05/13 01:06:21;;;;;;;9.00;4.15;;;10.50;99.90;;;;;;5033387;28;20037;-57
2022/05/13 01:08:47;;;;;;;11.25;3.92;;;10.60;99.90;;;;;;5033118;28;20533;-57
2022/05/13 01:11:19;;;;;;;7.82;3.72;;;10.80;99.90;;;;;;5033214;28;20033;-58
2022/05/13 01:13:49;;;;;;;8.35;3.70;;;10.80;99.90;;;;;;5031639;28;20034;-58
2022/05/13 01:16:14;;;;;;;11.13;3.40;;;10.70;99.90;;;;;;5033008;28;20049;-58
2022/05/13 01:18:42;;;;;;;9.45;3.53;;;11.40;99.90;;;;;;5033234;28;20053;-58
2022/05/13 01:21:11;;;;;;;10.70;3.80;;;10.80;99.90;;;;;;5032843;28;20049;-58
2022/05/13 01:23:40;;;;;;;9.25;3.53;;;10.90;99.90;;;;;;5032955;28;20039;-58
2022/05/13 01:26:12;;;;;;;8.55;3.38;;;11.00;99.90;;;;;;5031790;28;20443;-57
2022/05/13 01:28:50;;;;;;;9.02;3.40;;;11.00;99.90;;;;;;5033069;28;20065;-57
2022/05/13 01:31:32;;;;;;;10.18;3.33;;;11.10;99.90;;;;;;5032928;28;20087;-58
2022/05/13 01:33:59;;;;;;;9.40;3.40;;;11.10;99.90;;;;;;5032864;28;20048;-58
2022/05/13 01:36:26;;;;;;;7.20;3.10;;;11.00;99.90;;;;;;5032766;28;20041;-57
2022/05/13 01:38:52;;;;;;;6.95;3.17;;;;;;;;;;5032358;28;20080;-57
2022/05/13 01:41:18;;;;;;;7.55;3.25;;;11.10;99.90;;;;;;5032840;28;20045;-57
2022/05/13 01:43:47;;;;;;;7.57;3.28;;;11.10;99.90;;;;;;5032651;28;20125;-58
2022/05/13 01:46:13;;;;;;;8.32;3.38;;;;;;;;;;5032161;28;20511;-58
2022/05/13 01:48:40;;;;;;;9.05;3.40;;;11.20;99.90;;;;;;5032258;28;20033;-57
2022/05/13 01:51:05;;;;;;;8.57;3.30;;;11.20;99.90;;;;;;5032726;28;20445;-58
2022/05/13 01:53:32;;;;;;;9.20;3.33;;;11.20;99.90;;;;;;5032465;28;20100;-58
2022/05/13 01:56:01;;;;;;;7.88;3.10;;;11.20;99.90;;;;;;5032367;28;20085;-57
2022/05/13 01:58:27;;;;;;;10.80;3.20;;;11.20;99.90;;;;;;5032409;28;20095;-57
2022/05/13 02:00:55;;;;;;;8.95;3.10;;;11.10;99.90;;;;;;5031891;28;20415;-57
2022/05/13 02:06:08;;;;;;;9.45;3.42;;;10.60;99.90;;;;;;5032186;28;20395;-57
2022/05/13 02:08:34;;;;;;;9.43;3.20;;;11.30;99.90;;;;;;5031885;28;20033;-57
2022/05/13 02:11:01;;;;;;;7.70;3.28;;;11.30;99.90;;;;;;5032228;28;20384;-58
2022/05/13 02:13:27;;;;;;;10.57;3.42;;;;;;;;;;5030805;28;20064;-57
2022/05/13 02:15:53;;;;;;;14.73;3.78;;;11.30;99.90;;;;;;5032015;28;20400;-57
2022/05/13 02:18:20;;;;;;;9.82;3.40;;;11.30;99.90;;;;;;5032058;28;20049;-58
2022/05/13 02:20:46;;;;;;;12.25;3.15;;;11.40;99.90;;;;;;5032099;28;20043;-57
2022/05/13 02:23:12;;;;;;;8.93;3.40;;;;;;;;;;5032096;28;20050;-58
2022/05/13 02:25:38;;;;;;;7.85;3.30;;;11.40;99.90;;;;;;5031949;28;20045;-57
2022/05/13 02:28:05;;;;;;;10.07;3.40;;;11.10;99.90;;;;;;5032176;28;20326;-57
2022/05/13 02:30:32;;;;;;;7.35;3.25;;;11.80;99.90;;;;;;5031968;28;20037;-58
2022/05/13 02:32:57;;;;;;;9.45;3.28;;;10.90;99.90;;;;;;5031597;28;20044;-58
2022/05/13 02:35:23;;;;;;;9.70;3.20;;;11.20;99.90;;;;;;5032107;28;20041;-57
2022/05/13 02:37:49;;;;;;;8.95;3.50;;;11.10;99.90;;;;;;5030503;28;20041;-58
2022/05/13 02:40:16;;;;;;;9.25;3.20;;;11.00;99.90;;;;;;5031498;28;20038;-58
2022/05/13 02:42:42;;;;;;;13.25;3.47;;;11.20;99.90;;;;;;5047193;28;20050;-58
2022/05/13 02:45:09;;;;;;;7.45;3.30;;;11.30;99.90;;;;;;5031652;28;20057;-56
2022/05/13 02:47:39;;;;;;;10.85;3.20;;;11.20;99.90;;;;;;5030654;28;20147;-56
2022/05/13 02:50:19;;;;;;;10.05;3.55;;;11.20;99.90;;;;;;5031813;28;20041;-56
2022/05/13 02:52:46;;;;;;;10.60;3.30;;;11.20;99.90;;;;;;5030495;28;20499;-56
2022/05/13 02:55:12;;;;;;;9.57;3.42;;;;;;;;;;5031522;28;20046;-55
2022/05/13 02:57:38;;;;;;;9.98;3.10;;;;;;;;;;5031807;28;20048;-55
2022/05/13 03:00:06;;;;;;;10.10;3.38;;;10.90;99.90;;;;;;5031697;28;20081;-55
2022/05/13 03:02:33;;;;;;;10.25;3.03;;;11.10;99.90;;;;;;5031225;28;20064;-56
2022/05/13 03:04:59;;;;;;;11.77;3.50;;;11.10;99.90;;;;;;5031562;28;20124;-56
2022/05/13 03:07:25;;;;;;;11.27;3.35;;;10.80;99.90;;;;;;5031735;28;20033;-56
2022/05/13 03:09:50;;;;;;;9.77;3.00;;;11.20;99.90;;;;;;5031588;28;20048;-58
2022/05/13 03:12:16;;;;;;;8.63;3.10;;;11.00;99.90;;;;;;5031523;28;20333;-58
2022/05/13 03:14:42;;;;;;;7.35;3.13;;;11.00;99.90;;;;;;5031473;28;20487;-58
2022/05/13 03:17:08;;;;;;;13.02;2.95;;;11.10;99.90;;;;;;5031825;28;20196;-57
2022/05/13 03:19:37;;;;;;;7.63;3.20;;;10.90;99.90;;;;;;5031409;28;20095;-57
2022/05/13 03:22:04;;;;;;;12.95;3.33;;;10.80;99.90;;;;;;5031500;28;20045;-57
2022/05/13 03:24:30;;;;;;;10.90;3.50;;;10.70;99.90;;;;;;5030892;28;20519;-58
2022/05/13 03:26:56;;;;;;;10.50;3.58;;;10.80;99.90;;;;;;5031670;28;20037;-57
2022/05/13 03:29:22;;;;;;;11.25;3.30;;;10.40;99.90;;;;;;5031339;28;20037;-58
2022/05/13 03:31:47;;;;;;;8.50;3.05;;;11.20;99.90;;;;;;5031319;28;20084;-57
2022/05/13 03:34:13;;;;;;;14.27;3.40;;;;;;;;;;5031010;28;20045;-57
2022/05/13 03:36:39;;;;;;;12.48;3.08;;;11.10;99.90;;;;;;5031498;28;20140;-57
2022/05/13 03:39:05;;;;;;;10.15;3.20;;;10.50;99.90;;;;;;5031535;28;20500;-57
2022/05/13 03:41:31;;;;;;;11.15;3.05;;;;;;;;;;5031192;28;20045;-57
2022/05/13 03:43:57;;;;;;;12.23;3.47;;;;;;;;;;5030855;28;20439;-57
2022/05/13 03:46:23;;;;;;;12.38;3.42;;;10.70;99.90;;;;;;5031065;28;20090;-58
2022/05/13 03:48:49;;;;;;;12.43;3.55;;;;;;;;;;5032026;28;20116;-57
2022/05/13 03:51:15;;;;;;;10.48;3.10;;;10.80;99.90;;;;;;5034736;28;20038;-58
2022/05/13 03:53:40;;;;;;;9.48;3.30;;;10.70;99.90;;;;;;5034699;28;20044;-57
2022/05/13 03:56:07;;;;;;;10.98;3.38;;;;;;;;;;5034458;28;20041;-57
2022/05/13 03:58:33;;;;;;;12.57;3.67;;;;;;;;;;5033051;28;20049;-57
2022/05/13 04:00:59;;;;;;;10.88;4.13;;;;;;;;;;5034346;28;20156;-57
2022/05/13 04:03:25;;;;;;;12.20;3.42;;;11.00;99.90;;;;;;5034508;28;20115;-58
2022/05/13 04:11:20;;;;;;;11.63;3.88;;;;;;;;;;5034349;28;20037;-57
2022/05/13 04:16:30;;;;;;;11.32;3.60;;;10.90;99.90;;;;;;5034271;28;20448;-57
2022/05/13 04:18:57;;;;;;;9.85;3.50;;;10.90;99.90;;;;;;5034198;28;20128;-58
2022/05/13 04:21:26;;;;;;;13.57;3.78;;;10.90;99.90;;;;;;5033982;28;20086;-58
2022/05/13 04:23:54;;;;;;;11.60;3.70;;;10.40;99.90;;;;;;5034080;28;20033;-57
2022/05/13 04:26:20;;;;;;;12.70;3.92;;;10.90;99.90;;;;;;5033969;28;20029;-57
2022/05/13 04:28:48;;;;;;;10.00;3.35;;;11.00;99.90;;;;;;5033684;28;20403;-58
2022/05/13 04:31:22;;;;;;;12.85;3.70;;;11.00;99.90;;;;;;5033785;28;20044;-57
2022/05/13 04:33:49;;;;;;;12.52;3.80;;;11.00;99.90;;;;;;5033796;28;20507;-58
2022/05/13 04:36:15;;;;;;;14.90;3.95;;;11.60;99.90;;;;;;5033821;28;20041;-57
2022/05/13 04:38:41;;;;;;;14.45;4.25;;;11.00;99.90;;;;;;5033812;28;20395;-58
2022/05/13 04:43:53;;;;;;;14.18;3.90;;;10.90;99.90;;;;;;5033915;28;20132;-58
2022/05/13 04:46:18;;;;;;;17.77;3.88;;;11.50;99.90;;;;;;5033627;28;20037;-57
2022/05/13 04:48:46;;;;;;;12.98;4.07;;;11.40;99.90;;;;;;5031981;28;20038;-57
2022/05/13 04:51:13;;;;;;;18.48;4.60;;;;;;;;;;5033656;28;20076;-57
2022/05/13 04:53:39;;;;;;;17.67;4.40;;;11.50;99.90;;;;;;5033697;28;20083;-57
2022/05/13 04:56:07;;;;;;;15.23;4.57;;;11.20;99.90;;;;;;5033209;28;20064;-57
2022/05/13 04:58:34;;;;;;;18.13;4.65;;;11.20;99.90;;;;;;5033415;28;20046;-57
2022/05/13 05:01:02;;;;;;;14.27;4.43;;;11.20;99.90;;;;;;5032996;28;20064;-57
2022/05/13 05:03:29;;;;;;;16.88;4.72;;;11.30;99.90;;;;;;5033158;28;20111;-58
2022/05/13 05:05:59;;;;;;;15.30;4.53;;;11.30;99.90;;;;;;5033459;28;20037;-58
2022/05/13 05:08:26;;;;;;;19.23;4.93;;;11.30;99.90;;;;;;5033311;28;20174;-58
2022/05/13 05:10:52;;;;;;;20.25;4.78;;;11.30;99.90;;;;;;5033143;28;20434;-57
2022/05/13 05:13:21;;;;;;;16.98;5.10;;;11.50;99.90;;;;;;5032835;28;20037;-58
2022/05/13 05:15:47;;;;;;;20.83;5.10;;;11.60;99.90;;;;;;5033627;28;20041;-58
2022/05/13 05:18:14;;;;;;;18.17;4.78;;;11.60;99.90;;;;;;5033095;28;20491;-57
2022/05/13 05:20:40;;;;;;;21.45;4.80;;;11.50;99.90;;;;;;5033074;28;20041;-58
2022/05/13 05:23:06;;;;;;;13.00;4.65;;;11.60;99.90;;;;;;5032917;28;20125;-57
2022/05/13 05:25:32;;;;;;;21.05;5.10;;;11.70;99.90;;;;;;5015175;28;20454;-58
2022/05/13 05:27:58;;;;;;;19.75;5.38;;;;;;;;;;5032898;28;20037;-57
2022/05/13 05:30:25;;;;;;;19.38;5.55;;;11.80;99.90;;;;;;5032813;28;20048;-57
2022/05/13 05:32:51;;;;;;;20.90;5.47;;;11.40;99.90;;;;;;5031292;28;20033;-57
2022/05/13 05:35:21;;;;;;;22.38;5.30;;;11.80;99.90;;;;;;5031324;28;20053;-58
2022/05/13 05:37:47;;;;;;;20.33;5.22;;;;;;;;;;5032689;28;20103;-57
2022/05/13 05:40:13;;;;;;;16.17;5.65;;;12.70;99.90;;;;;;5032319;28;20417;-58
2022/05/13 05:42:40;;;;;;;20.23;5.15;;;11.90;99.90;;;;;;5032630;28;20400;-58
2022/05/13 05:45:09;;;;;;;20.13;5.10;;;12.10;99.90;;;;;;5032645;28;20034;-58
2022/05/13 05:47:35;;;;;;;18.33;4.97;;;12.20;99.90;;;;;;5032595;28;20034;-58
2022/05/13 05:50:03;;;;;;;18.70;5.70;;;12.60;99.90;;;;;;5032420;28;20037;-58
2022/05/13 05:52:29;;;;;;;21.10;5.63;;;;;;;;;;5031146;28;20049;-58
2022/05/13 05:57:39;;;;;;;22.10;5.53;;;13.10;99.90;;;;;;5032562;28;20046;-58
2022/05/13 06:00:07;;;;;;;16.60;5.35;;;12.80;99.90;;;;;;5032266;28;20438;-58
2022/05/13 06:02:33;;;;;;;26.83;6.45;;;12.90;99.90;;;;;;5030510;28;20110;-58
2022/05/13 06:04:59;;;;;;;21.20;5.65;;;12.50;99.90;;;;;;5031925;28;20050;-58
2022/05/13 06:07:26;;;;;;;15.15;5.28;;;12.80;99.90;;;;;;5032121;28;20044;-58
2022/05/13 06:09:52;;;;;;;20.88;5.60;;;13.00;99.90;;;;;;5031743;28;20030;-58
2022/05/13 06:12:19;;;;;;;16.42;5.03;;;12.90;99.90;;;;;;5030029;28;20045;-58
2022/05/13 06:14:45;;;;;;;18.70;5.68;;;12.80;99.90;;;;;;5032076;28;20045;-58
2022/05/13 06:17:10;;;;;;;18.27;5.15;;;13.80;99.90;;;;;;5031999;28;20041;-58
2022/05/13 06:19:37;;;;;;;21.40;5.35;;;14.10;99.90;;;;;;5032115;28;20076;-58
2022/05/13 06:22:03;;;;;;;21.20;5.30;;;;;;;;;;5032274;28;20124;-58
2022/05/13 06:24:29;;;;;;;19.58;4.97;;;15.10;99.90;;;;;;5031889;28;20425;-58
2022/05/13 06:26:55;;;;;;;22.33;5.10;;;;;;;;;;5031670;28;20048;-58
2022/05/13 06:29:23;;;;;;;14.90;4.97;;;16.90;99.90;;;;;;5030749;28;20073;-58
2022/05/13 06:31:50;;;;;;;21.85;5.35;;;17.20;99.90;;;;;;5031887;28;20037;-58
2022/05/13 06:34:16;;;;;;;16.88;5.07;;;17.50;99.90;;;;;;5031749;28;20034;-58
2022/05/13 06:36:42;;;;;;;15.95;4.65;;;17.10;99.90;;;;;;5031479;28;20076;-58
2022/05/13 06:39:08;;;;;;;14.60;4.32;;;17.00;99.90;;;;;;5031789;28;20037;-58
2022/05/13 06:41:37;;;;;;;18.90;4.50;;;16.90;99.90;;;;;;5031733;28;20045;-58
2022/05/13 06:44:08;;;;;;;13.93;4.47;;;16.40;99.90;;;;;;5031788;28;20095;-58
2022/05/13 06:46:35;;;;;;;16.00;4.70;;;;;;;;;;5030173;28;20041;-58
2022/05/13 06:49:04;;;;;;;15.38;4.22;;;16.70;99.90;;;;;;5031728;28;20124;-58
2022/05/13 06:51:31;;;;;;;16.58;4.32;;;16.20;99.90;;;;;;5030179;28;20150;-58
2022/05/13 06:53:57;;;;;;;14.48;4.00;;;16.30;99.90;;;;;;5030169;28;20056;-58
2022/05/13 06:56:22;;;;;;;17.20;4.15;;;16.20;99.90;;;;;;5031395;28;20038;-58
2022/05/13 06:58:48;;;;;;;13.50;3.92;;;;;;;;;;5031811;28;20087;-58
2022/05/13 07:01:14;;;;;;;11.52;3.70;;;16.00;99.90;;;;;;5031120;28;20103;-58
2022/05/13 07:03:40;;;;;;;19.35;4.20;;;15.50;99.90;;;;;;5031509;28;20089;-58
2022/05/13 07:06:05;;;;;;;16.95;4.25;;;15.20;99.90;;;;;;5029737;28;20092;-58
2022/05/13 07:08:31;;;;;;;18.92;3.80;;;14.90;99.90;;;;;;5031067;28;20372;-58
2022/05/13 07:10:57;;;;;;;14.95;4.05;;;15.40;99.90;;;;;;5031523;28;20041;-58
2022/05/13 07:13:24;;;;;;;13.60;3.53;;;;;;;;;;5031150;28;20420;-58
2022/05/13 07:15:49;;;;;;;15.52;4.00;;;15.10;99.90;;;;;;5031237;28;20191;-58
2022/05/13 07:18:15;;;;;;;13.43;3.67;;;14.80;99.90;;;;;;5030945;28;20539;-58
2022/05/13 07:20:41;;;;;;;10.98;3.60;;;;;;;;;;5031493;28;20048;-58
2022/05/13 07:23:07;;;;;;;13.73;3.92;;;15.10;99.90;;;;;;5031141;28;20408;-58
2022/05/13 07:25:33;;;;;;;13.05;3.60;;;15.10;99.90;;;;;;5035014;28;20061;-59
2022/05/13 07:27:59;;;;;;;13.98;3.63;;;15.10;99.90;;;;;;5034903;28;20042;-57
2022/05/13 07:30:25;;;;;;;12.25;4.38;;;14.70;99.90;;;;;;5035229;28;20047;-57
2022/05/13 07:32:52;;;;;;;12.98;3.20;;;;;;;;;;5034863;28;20124;-58
2022/05/13 07:35:19;;;;;;;15.85;3.85;;;15.00;99.90;;;;;;5034731;28;20045;-58
2022/05/13 07:37:44;;;;;;;14.82;4.00;;;14.90;99.90;;;;;;5016934;28;20049;-58
2022/05/13 07:42:55;;;;;;;14.48;4.40;;;15.40;99.90;;;;;;5034441;28;20049;-58
2022/05/13 07:45:21;;;;;;;12.05;4.07;;;15.70;99.90;;;;;;5034621;28;20395;-58
2022/05/13 07:47:47;;;;;;;14.27;4.13;;;15.80;99.90;;;;;;5034637;28;20041;-58
2022/05/13 07:50:14;;;;;;;9.98;3.40;;;16.20;99.90;;;;;;5034432;28;20034;-58
2022/05/13 07:52:41;;;;;;;12.80;3.90;;;17.10;99.90;;;;;;5034756;28;20037;-58
2022/05/13 07:55:12;;;;;;;14.25;3.97;;;18.20;99.90;;;;;;5034190;28;20041;-58
2022/05/13 07:57:40;;;;;;;11.07;3.53;;;17.90;99.90;;;;;;5034416;28;20041;-59
2022/05/13 08:00:27;;;;;;;10.98;3.30;;;17.90;99.90;;;;;;5034016;28;20124;-58
2022/05/13 08:02:56;;;;;;;14.55;3.63;;;18.00;99.90;;;;;;5034088;28;20053;-59
2022/05/13 08:05:22;;;;;;;9.60;3.13;;;17.90;99.90;;;;;;5034305;28;20073;-59
2022/05/13 08:07:56;;;;;;;11.10;3.15;;;17.70;99.90;;;;;;5034175;28;20073;-59
2022/05/13 08:10:22;;;;;;;12.90;2.97;;;17.50;99.90;;;;;;5034221;28;20033;-58
2022/05/13 08:12:48;;;;;;;9.30;2.50;;;18.10;99.90;;;;;;5032479;28;20060;-59
2022/05/13 08:15:13;;;;;;;8.63;2.78;;;17.00;99.90;;;;;;5034251;28;20044;-58
2022/05/13 08:17:39;;;;;;;14.27;2.80;;;;;;;;;;5033808;28;20033;-59
2022/05/13 08:20:06;;;;;;;7.78;2.40;;;17.80;99.90;;;;;;5032296;28;20073;-59
2022/05/13 08:22:31;;;;;;;6.28;2.33;;;17.50;99.90;;;;;;5032318;28;20073;-59
2022/05/13 08:24:57;;;;;;;9.30;2.75;;;18.20;99.90;;;;;;5033907;28;20522;-59
2022/05/13 08:27:23;;;;;;;6.60;2.30;;;17.20;99.90;;;;;;5033639;28;20037;-59
2022/05/13 08:29:48;;;;;;;11.15;2.33;;;17.40;99.90;;;;;;5033594;28;20049;-58
2022/05/13 08:32:14;;;;;;;8.30;2.40;;;17.70;99.50;;;;;;5033678;28;20037;-58
2022/05/13 08:34:40;;;;;;;7.95;2.45;;;17.40;99.90;;;;;;5033525;28;20080;-58
2022/05/13 08:37:05;;;;;;;5.72;2.20;;;17.00;99.90;;;;;;5033528;28;20053;-58
2022/05/13 08:39:31;;;;;;;11.10;2.45;;;17.20;99.90;;;;;;5032483;28;20033;-59
2022/05/13 08:42:21;;;;;;;6.47;2.20;;;16.90;99.90;;;;;;5033568;28;20418;-58
2022/05/13 08:44:49;;;;;;;10.02;2.40;;;17.50;99.90;;;;;;5033143;28;20555;-58
2022/05/13 08:47:22;;;;;;;8.55;2.17;;;16.90;99.90;;;;;;5033394;28;20033;-58
2022/05/13 08:49:52;;;;;;;6.20;2.10;;;17.30;99.90;;;;;;5033231;28;20037;-58
2022/05/13 08:53:06;;;;;;;6.80;1.90;;;17.10;99.90;;;;;;5033499;28;20041;-58
2022/05/13 08:55:40;;;;;;;8.60;2.10;;;17.20;99.90;;;;;;5033418;28;20041;-59
2022/05/13 08:58:10;;;;;;;7.60;2.30;;;17.00;99.90;;;;;;5033136;28;20060;-59
2022/05/13 09:00:44;;;;;;;4.57;1.98;;;17.20;99.90;;;;;;5031809;28;20055;-59
2022/05/13 09:03:38;;;;;;;7.53;2.00;;;17.30;99.90;;;;;;5033423;28;20450;-59
2022/05/13 09:06:33;;;;;;;10.82;1.98;;;17.40;99.90;;;;;;5032985;28;20049;-58
2022/05/13 09:09:02;;;;;;;10.05;2.28;;;17.90;99.90;;;;;;5033069;28;20441;-58
2022/05/13 09:11:44;;;;;;;7.93;2.42;;;18.70;99.80;;;;;;5032783;28;20503;-59
2022/05/13 09:14:09;;;;;;;6.35;2.17;;;18.20;98.80;;;;;;5032985;28;20372;-59
2022/05/13 09:16:38;;;;;;;8.43;2.30;;;18.10;98.50;;;;;;5033142;28;20041;-60
2022/05/13 09:19:04;;;;;;;9.55;2.50;;;18.10;95.30;;;;;;5032901;28;20049;-58
2022/05/13 09:21:30;;;;;;;6.88;1.83;;;17.70;94.80;;;;;;5032844;28;20480;-58
2022/05/13 09:23:56;;;;;;;7.13;2.00;;;17.60;99.90;;;;;;5032992;28;20080;-58
2022/05/13 09:26:26;;;;;;;11.38;2.17;;;17.50;99.90;;;;;;5032708;28;20073;-58
2022/05/13 09:29:12;;;;;;;6.35;2.03;;;17.60;99.90;;;;;;5032965;28;20041;-59
2022/05/13 09:31:57;;;;;;;;;;;17.60;94.00;;;;;;5033199;28;20030;-59
2022/05/13 09:35:08;;;;;;;14.38;2.20;;;18.30;99.20;;;;;;5031089;28;19921;-59
2022/05/13 09:37:42;;;;;;;8.57;2.20;;;18.00;92.10;;;;;;5032612;28;20041;-58
2022/05/13 09:40:17;;;;;;;6.35;1.85;;;18.20;98.90;;;;;;5032547;28;20034;-60
2022/05/13 09:42:51;;;;;;;10.00;2.30;;;17.60;98.70;;;;;;5032498;28;20129;-59
2022/05/13 09:45:21;;;;;;;8.25;2.00;;;17.80;92.50;;;;;;5032505;28;20366;-58
2022/05/13 09:48:01;;;;;;;11.52;2.20;;;17.60;99.30;;;;;;5031717;28;20400;-59
2022/05/13 09:50:31;;;;;;;9.45;2.13;;;17.70;99.60;;;;;;5032391;28;20045;-59
2022/05/13 09:53:06;;;;;;;6.03;1.98;;;18.00;99.60;;;;;;5032048;28;20373;-59
2022/05/13 09:55:42;;;;;;;5.82;1.90;;;17.90;98.70;;;;;;5030987;28;20048;-59
2022/05/13 09:58:20;;;;;;;9.50;2.17;;;18.30;91.70;;;;;;5032348;28;20049;-62
2022/05/13 10:00:48;;;;;;;9.43;2.47;;;17.80;91.90;;;;;;5031940;28;20510;-59
2022/05/13 10:03:23;;;;;;;8.80;2.22;;;17.30;99.00;;;;;;5032067;28;20043;-59
2022/05/13 10:06:11;;;;;;;11.63;1.80;;;17.30;99.10;;;;;;5031599;28;20498;-59
2022/05/13 10:13:57;;;;;;;10.18;2.30;;;17.30;99.30;;;;;;5032064;28;20041;-59
2022/05/13 10:14:38;;;;;;;6.75;1.92;;;17.20;99.90;;;;;;5031973;28;20388;-59
2022/05/13 10:17:17;;;;;;;9.70;2.33;;;16.90;99.90;;;;;;5031977;28;20041;-59
2022/05/13 10:19:53;;;;;;;8.05;2.00;;;16.30;99.90;;;;;;5031571;28;20041;-59
2022/05/13 10:22:32;;;;;;;6.90;2.20;;;16.50;99.90;;;;;;5030581;28;20095;-59
2022/05/13 10:25:10;;;;;;;5.05;1.90;;;17.00;99.90;;;;;;5031486;28;20057;-59
2022/05/13 10:27:52;;;;;;;11.20;2.58;;;16.80;99.90;;;;;;5047233;28;20044;-58
2022/05/13 10:30:31;;;;;;;10.38;2.45;;;17.60;99.90;;;;;;5032041;28;20391;-59
2022/05/13 10:33:06;;;;;;;9.93;2.00;;;17.70;99.90;;;;;;5031937;28;20041;-58
2022/05/13 10:35:44;;;;;;;9.23;2.20;;;18.10;99.70;;;;;;5031366;28;20396;-59
2022/05/13 10:38:30;;;;;;;6.78;2.00;;;18.00;93.60;;;;;;5031527;28;20041;-59
2022/05/13 10:41:07;;;;;;;8.68;2.40;;;18.20;91.10;;;;;;5031030;28;20046;-58
2022/05/13 10:43:43;;;;;;;9.40;1.98;;;18.20;96.90;;;;;;5031705;28;20125;-59
2022/05/13 10:46:58;;;;;;;12.73;2.10;;;18.10;96.30;;;;;;5031760;28;20038;-58
2022/05/13 10:49:40;;;;;;;8.88;2.00;;;18.80;91.70;;;;;;4989753;28;20112;-59
2022/05/13 10:52:18;;;;;;;10.57;2.00;;;18.70;83.00;;;;;;4989612;28;20046;-59
2022/05/13 10:54:58;;;;;;;11.63;2.05;;;18.80;93.50;;;;;;4989281;28;20030;-59
2022/05/13 10:57:36;;;;;;;7.50;2.28;;;18.00;87.90;;;;;;4989797;28;20038;-59
2022/05/13 11:00:10;;;;;;;11.88;2.17;;;18.40;93.90;;;;;;4993133;28;20100;-59
2022/05/13 11:03:04;;;;;;;9.68;2.58;;;18.00;87.90;;;;;;4993228;28;20137;-59
2022/05/13 11:06:06;;;;;;;10.73;3.10;;;18.90;94.40;;;;;;4993362;28;20375;-59
2022/05/13 11:08:50;;;;;;;9.68;2.65;;;19.20;94.90;;;;;;4961296;28;20050;-59
2022/05/13 11:11:34;;;;;;;9.80;2.72;;;18.30;94.20;;;;;;4993258;28;20436;-59
2022/05/13 11:14:07;;;;;;;13.63;2.80;;;18.80;94.20;;;;;;4992933;28;20081;-57
2022/05/13 11:16:49;;;;;;;13.00;2.60;;;18.90;91.00;;;;;;4993091;28;20125;-57
2022/05/13 11:19:40;;;;;;;9.63;2.60;;;18.80;93.50;;;;;;4992880;28;20458;-57
2022/05/13 11:22:26;;;;;;;9.88;2.30;;;18.90;85.30;;;;;;4992983;28;20050;-57
2022/05/13 11:28:20;;;;;;;7.78;2.15;;;19.00;79.70;;;;;;5034799;28;20443;-57
2022/05/13 11:31:23;;;;;;;10.10;2.55;;;18.80;92.60;;;;;;5035141;28;20103;-57
2022/05/13 11:34:02;;;;;;;10.10;2.45;;;19.20;92.70;;;;;;5035277;28;20369;-57
2022/05/13 11:36:46;;;;;;;17.00;2.97;;;19.50;92.00;;;;;;5034718;28;20486;-57
2022/05/13 11:39:34;;;;;;;11.40;2.10;;;19.30;91.70;;;;;;5034940;28;20052;-57
2022/05/13 11:42:18;;;;;;;9.45;2.22;;;19.30;90.50;;;;;;5034876;28;20133;-57
2022/05/13 11:45:12;;;;;;;9.00;2.00;;;19.60;88.80;;;;;;5034831;28;20088;-57
2022/05/13 11:47:58;;;;;;;6.03;2.28;;;19.50;89.80;;;;;;5034917;28;20069;-57
2022/05/13 11:50:26;;;;;;;20.30;3.05;;;19.40;89.90;;;;;;5034914;28;20040;-57
2022/05/13 11:52:56;;;;;;;10.10;2.30;;;19.60;90.30;;;;;;5034497;28;20116;-57
2022/05/13 11:55:47;;;;;;;7.80;2.40;;;19.60;88.90;;;;;;5034311;28;20518;-57
2022/05/13 11:58:49;;;;;;;6.93;2.30;;;19.40;88.90;;;;;;5034604;28;20448;-57
2022/05/13 12:01:38;;;;;;;16.45;2.58;;;19.40;84.00;;;;;;5034292;28;20141;-57
2022/05/13 12:04:16;;;;;;;9.77;2.50;;;20.10;89.30;;;;;;5034239;28;20045;-58
2022/05/13 12:06:50;;;;;;;8.75;2.60;;;19.40;89.00;;;;;;5034422;28;20045;-59
2022/05/13 12:09:22;;;;;;;15.40;3.53;;;19.10;88.90;;;;;;5033625;28;20042;-59
2022/05/13 12:12:18;;;;;;;7.30;2.63;;;19.30;89.00;;;;;;5034346;28;20300;-59
2022/05/13 12:15:09;;;;;;;9.52;2.65;;;19.60;89.80;;;;;;5034428;28;20038;-59
2022/05/13 12:17:41;;;;;;;11.63;2.60;;;19.50;89.30;;;;;;5034574;28;20069;-59
2022/05/13 12:20:25;;;;;;;5.60;2.10;;;19.40;88.20;;;;;;5034011;28;20167;-59
2022/05/13 12:23:25;;;;;;;8.82;2.50;;;19.40;87.90;;;;;;5034056;28;20045;-59
2022/05/13 12:26:03;;;;;;;16.83;2.47;;;19.00;72.50;;;;;;5034182;28;20045;-59
2022/05/13 12:28:48;;;;;;;11.93;2.50;;;19.10;89.10;;;;;;5033095;28;20037;-59
2022/05/13 12:31:39;;;;;;;14.07;2.25;;;18.50;89.10;;;;;;5034098;28;20502;-59
2022/05/13 12:39:44;;;;;;;10.73;2.40;;;;;;;;;;5033525;28;20314;-59
2022/05/13 12:42:12;;;;;;;10.75;2.30;;;18.90;76.60;;;;;;5033873;28;20042;-60
2022/05/13 12:44:58;;;;;;;8.77;2.38;;;19.20;81.20;;;;;;5033879;28;20349;-59
2022/05/13 12:47:30;;;;;;;12.10;2.38;;;19.00;88.50;;;;;;5033763;28;20052;-59
2022/05/13 12:50:40;;;;;;;11.45;2.50;;;19.20;87.40;;;;;;5033749;28;20045;-59
2022/05/13 12:53:27;;;;;;;11.35;2.20;;;19.50;85.70;;;;;;5033193;28;20055;-59
2022/05/13 12:56:16;;;;;;;8.43;2.22;;;19.80;72.30;;;;;;5033499;28;20037;-60
2022/05/13 12:58:45;;;;;;;11.35;2.40;;;19.10;75.10;;;;;;5033468;28;20040;-60
2022/05/13 13:01:13;;;;;;;16.88;2.53;;;19.10;85.50;;;;;;5033026;28;20518;-60
2022/05/13 13:03:42;;;;;;;10.32;2.33;;;19.40;69.80;;;;;;5033574;28;20045;-60
2022/05/13 13:06:16;;;;;;;10.27;2.42;;;19.40;84.20;;;;;;5033011;28;20125;-60
2022/05/13 13:08:43;;;;;;;19.38;2.70;;;19.20;70.70;;;;;;5033079;28;20076;-60
2022/05/13 13:11:15;;;;;;;8.77;2.30;;;19.50;84.70;;;;;;5033287;28;20045;-60
2022/05/13 13:13:47;;;;;;;7.18;2.08;;;19.20;84.30;;;;;;5033432;28;20121;-60
2022/05/13 13:16:43;;;;;;;6.93;2.40;;;19.60;83.70;;;;;;5033259;28;20045;-60
2022/05/13 13:19:21;;;;;;;9.02;2.13;;;19.80;68.40;;;;;;5032991;28;20116;-60
2022/05/13 13:21:55;;;;;;;10.52;2.30;;;19.70;82.00;;;;;;5032684;28;20124;-60
2022/05/13 13:24:29;;;;;;;7.95;2.30;;;19.60;80.90;;;;;;5033164;28;20099;-60
2022/05/13 13:26:57;;;;;;;12.85;2.20;;;19.70;81.00;;;;;;5032965;28;20397;-60
2022/05/13 13:29:28;;;;;;;11.95;1.98;;;19.70;81.00;;;;;;5033159;28;20072;-60
2022/05/13 13:32:00;;;;;;;10.50;2.22;;;19.70;66.30;;;;;;5047865;28;20044;-60
2022/05/13 13:34:48;;;;;;;6.10;2.10;;;19.60;81.00;;;;;;5048233;28;20396;-60
2022/05/13 13:37:16;;;;;;;7.53;2.22;;;19.10;82.10;;;;;;5032465;28;20045;-60
2022/05/13 13:39:42;;;;;;;14.32;2.35;;;18.10;80.10;;;;;;5032363;28;20488;-60
2022/05/13 13:42:10;;;;;;;9.38;2.30;;;19.30;81.80;;;;;;5031320;28;20048;-60
2022/05/13 13:44:38;;;;;;;11.60;2.30;;;19.30;68.10;;;;;;5032419;28;20084;-60
2022/05/13 13:47:10;;;;;;;11.35;2.35;;;19.20;83.20;;;;;;5032230;28;20045;-60